createdAt,value
2022-10-10T00:01:11.999Z,101835.47
2022-10-10T00:03:39.261Z,101837.28
2022-10-10T00:06:06.250Z,101825.69
2022-10-10T00:08:33.001Z,101829.28
2022-10-10T00:10:59.815Z,101824.81
2022-10-10T00:13:26.540Z,101826.66
2022-10-10T00:15:53.258Z,101827.53
2022-10-10T00:21:00.477Z,101830.25
2022-10-10T00:23:27.452Z,101817.91
2022-10-10T00:25:54.105Z,101812.66
2022-10-10T00:28:20.878Z,101812.66
2022-10-10T00:30:47.584Z,101813.56
2022-10-10T00:33:14.231Z,101811.88
2022-10-10T00:35:41.000Z,101810.03
2022-10-10T00:38:08.025Z,101806.59
2022-10-10T00:40:35.291Z,101795.97
2022-10-10T00:43:02.328Z,101797.69
2022-10-10T00:45:36.795Z,101793.31
2022-10-10T00:48:15.913Z,101796.84
2022-10-10T00:51:12.206Z,101793.34
2022-10-10T00:53:42.388Z,101789.13
2022-10-10T00:56:09.523Z,101788.16
2022-10-10T00:58:37.339Z,101789.88
2022-10-10T01:01:04.172Z,101783.63
2022-10-10T01:03:30.948Z,101782.75
2022-10-10T01:05:57.695Z,101780.97
2022-10-10T01:08:24.478Z,101770.38
2022-10-10T01:11:09.872Z,101772.19
2022-10-10T01:13:53.207Z,101768.59
2022-10-10T01:16:25.878Z,101767.75
2022-10-10T01:19:31.709Z,101765.94
2022-10-10T01:22:38.864Z,101763.34
2022-10-10T01:25:28.493Z,101760.69
2022-10-10T01:28:02.533Z,101758.91
2022-10-10T01:30:29.686Z,101757.19
2022-10-10T01:33:09.253Z,101758.13
2022-10-10T01:36:09.700Z,101750.13
2022-10-10T01:38:42.196Z,101751.94
2022-10-10T01:41:13.975Z,101747.56
2022-10-10T01:43:40.903Z,101745.84
2022-10-10T01:46:15.666Z,101741.44
2022-10-10T01:48:43.369Z,101738.81
2022-10-10T01:51:13.018Z,101736.09
2022-10-10T01:53:57.886Z,101732.53
2022-10-10T01:56:30.517Z,101730.75
2022-10-10T01:59:11.307Z,101727.22
2022-10-10T02:01:56.700Z,101730.81
2022-10-10T02:04:31.986Z,101729.03
2022-10-10T02:07:42.324Z,101724.59
2022-10-10T02:10:09.616Z,101720.19
2022-10-10T02:12:36.519Z,101715.03
2022-10-10T02:15:09.080Z,101711.44
2022-10-10T02:17:37.949Z,101714.97
2022-10-10T02:20:06.445Z,101715.88
2022-10-10T02:22:33.378Z,101711.44
2022-10-10T02:25:00.278Z,101710.50
2022-10-10T02:27:36.026Z,101700.09
2022-10-10T02:30:04.248Z,101703.56
2022-10-10T02:32:52.436Z,101698.28
2022-10-10T02:35:23.860Z,101689.38
2022-10-10T02:37:52.051Z,101687.59
2022-10-10T02:40:22.885Z,101685.84
2022-10-10T02:42:51.256Z,101681.41
2022-10-10T02:45:18.778Z,101685.84
2022-10-10T02:47:46.079Z,101680.47
2022-10-10T02:50:12.718Z,101682.25
2022-10-10T02:52:39.490Z,101677.88
2022-10-10T02:55:06.597Z,101674.34
2022-10-10T02:57:33.279Z,101677.88
2022-10-10T03:00:00.311Z,101677.03
2022-10-10T03:02:27.047Z,101665.53
2022-10-10T03:04:53.788Z,101663.81
2022-10-10T03:07:20.417Z,101665.56
2022-10-10T03:09:47.062Z,101655.84
2022-10-10T03:12:13.727Z,101653.19
2022-10-10T03:14:40.591Z,101653.19
2022-10-10T03:17:07.255Z,101648.81
2022-10-10T03:19:34.006Z,101647.94
2022-10-10T03:22:00.689Z,101639.13
2022-10-10T03:24:27.593Z,101641.78
2022-10-10T03:26:54.237Z,101643.56
2022-10-10T03:29:20.928Z,101636.53
2022-10-10T03:31:47.552Z,101636.59
2022-10-10T03:34:14.208Z,101628.66
2022-10-10T03:36:40.868Z,101618.94
2022-10-10T03:39:09.396Z,101615.44
2022-10-10T03:41:36.661Z,101620.69
2022-10-10T03:44:03.319Z,101618.09
2022-10-10T03:46:29.982Z,101624.28
2022-10-10T03:48:56.636Z,101619.84
2022-10-10T03:51:23.364Z,101615.41
2022-10-10T03:53:49.995Z,101608.34
2022-10-10T03:56:16.687Z,101614.59
2022-10-10T03:58:43.347Z,101609.28
2022-10-10T04:01:10.094Z,101598.66
2022-10-10T04:03:36.845Z,101604.94
2022-10-10T04:06:03.678Z,101593.47
2022-10-10T04:08:30.777Z,101589.97
2022-10-10T04:10:57.468Z,101582.00
2022-10-10T04:13:25.845Z,101568.78
2022-10-10T04:15:53.762Z,101569.66
2022-10-10T04:18:20.651Z,101574.13
2022-10-10T04:20:47.346Z,101560.84
2022-10-10T04:23:14.055Z,101571.53
2022-10-10T04:25:41.970Z,101566.16
2022-10-10T04:28:12.049Z,101563.63
2022-10-10T04:30:38.885Z,101559.09
2022-10-10T04:33:05.780Z,101552.00
2022-10-10T04:35:32.724Z,101548.50
2022-10-10T04:37:59.377Z,101543.16
2022-10-10T04:40:26.968Z,101535.19
2022-10-10T04:42:54.854Z,101530.75
2022-10-10T04:45:21.839Z,101528.16
2022-10-10T04:47:48.474Z,101524.66
2022-10-10T04:50:15.176Z,101534.41
2022-10-10T04:52:44.959Z,101528.25
2022-10-10T04:55:11.696Z,101530.84
2022-10-10T04:57:38.450Z,101514.06
2022-10-10T05:00:06.470Z,101506.09
2022-10-10T05:02:33.260Z,101503.50
2022-10-10T05:04:59.908Z,101499.91
2022-10-10T05:07:26.625Z,101499.97
2022-10-10T05:09:53.286Z,101484.06
2022-10-10T05:12:19.952Z,101490.28
2022-10-10T05:14:48.300Z,101484.19
2022-10-10T05:17:15.487Z,101487.63
2022-10-10T05:19:42.726Z,101485.84
2022-10-10T05:22:09.412Z,101484.06
2022-10-10T05:24:36.110Z,101486.72
2022-10-10T05:27:02.790Z,101483.19
2022-10-10T05:29:29.441Z,101484.97
2022-10-10T05:31:56.317Z,101481.41
2022-10-10T05:34:23.154Z,101485.00
2022-10-10T05:36:49.809Z,101484.13
2022-10-10T05:39:16.549Z,101489.50
2022-10-10T05:41:43.336Z,101477.97
2022-10-10T05:44:10.298Z,101494.75
2022-10-10T05:46:36.954Z,101493.97
2022-10-10T05:49:03.818Z,101493.09
2022-10-10T05:51:30.624Z,101489.56
2022-10-10T05:53:57.648Z,101487.81
2022-10-10T05:56:24.433Z,101494.91
2022-10-10T05:58:53.970Z,101481.59
2022-10-10T06:01:20.694Z,101485.16
2022-10-10T06:03:52.779Z,101477.19
2022-10-10T06:06:19.772Z,101474.53
2022-10-10T06:08:46.501Z,101478.97
2022-10-10T06:11:13.297Z,101474.59
2022-10-10T06:13:39.981Z,101474.53
2022-10-10T06:16:06.843Z,101472.75
2022-10-10T06:18:33.525Z,101474.59
2022-10-10T06:21:05.518Z,101459.44
2022-10-10T06:23:32.859Z,101471.78
2022-10-10T06:25:59.568Z,101470.84
2022-10-10T06:28:26.312Z,101473.50
2022-10-10T06:30:53.048Z,101469.94
2022-10-10T06:33:19.804Z,101472.56
2022-10-10T06:35:48.588Z,101473.44
2022-10-10T06:38:16.400Z,101476.06
2022-10-10T06:40:43.406Z,101471.63
2022-10-10T06:43:14.467Z,101461.09
2022-10-10T06:45:43.357Z,101468.09
2022-10-10T06:48:11.158Z,101463.66
2022-10-10T06:50:37.943Z,101459.13
2022-10-10T06:53:04.780Z,101456.38
2022-10-10T06:55:31.637Z,101464.31
2022-10-10T06:57:58.716Z,101450.88
2022-10-10T07:00:25.893Z,101444.69
2022-10-10T07:02:53.134Z,101444.63
2022-10-10T07:05:20.088Z,101451.63
2022-10-10T07:07:46.753Z,101431.22
2022-10-10T07:10:15.085Z,101445.34
2022-10-10T07:12:44.690Z,101436.56
2022-10-10T07:15:12.264Z,101442.03
2022-10-10T07:17:39.273Z,101441.81
2022-10-10T07:20:06.416Z,101436.50
2022-10-10T07:22:33.453Z,101440.84
2022-10-10T07:25:00.237Z,101439.38
2022-10-10T07:27:26.979Z,101449.72
2022-10-10T07:29:53.732Z,101444.31
2022-10-10T07:32:20.560Z,101443.94
2022-10-10T07:34:47.271Z,101440.56
2022-10-10T07:37:13.976Z,101438.19
2022-10-10T07:39:40.796Z,101437.00
2022-10-10T07:42:07.521Z,101438.47
2022-10-10T07:44:34.921Z,101442.13
2022-10-10T07:47:01.927Z,101440.16
2022-10-10T07:49:28.814Z,101438.78
2022-10-10T07:51:58.930Z,101437.59
2022-10-10T07:54:27.483Z,101436.25
2022-10-10T07:56:54.187Z,101441.38
2022-10-10T07:59:20.844Z,101440.75
2022-10-10T08:01:47.558Z,101439.53
2022-10-10T08:04:14.394Z,101431.47
2022-10-10T08:06:41.038Z,101438.28
2022-10-10T08:09:07.827Z,101430.09
2022-10-10T08:11:34.514Z,101425.56
2022-10-10T08:14:01.389Z,101424.22
2022-10-10T08:16:28.274Z,101421.00
2022-10-10T08:18:54.975Z,101426.19
2022-10-10T08:21:26.935Z,101416.25
2022-10-10T08:23:53.681Z,101421.25
2022-10-10T08:26:20.589Z,101411.84
2022-10-10T08:28:48.899Z,101415.00
2022-10-10T08:31:18.873Z,101409.81
2022-10-10T08:33:46.648Z,101422.41
2022-10-10T08:36:15.851Z,101419.44
2022-10-10T08:38:42.839Z,101411.88
2022-10-10T08:41:28.823Z,101407.53
2022-10-10T08:43:59.011Z,101408.50
2022-10-10T08:46:47.048Z,101406.81
2022-10-10T08:49:21.238Z,101406.22
2022-10-10T08:52:00.001Z,101396.81
2022-10-10T08:54:27.461Z,101396.59
2022-10-10T08:57:00.095Z,101392.63
2022-10-10T08:59:32.796Z,101384.94
2022-10-10T09:02:21.558Z,101380.28
2022-10-10T09:04:50.296Z,101378.91
2022-10-10T09:07:34.303Z,101367.91
2022-10-10T09:10:22.918Z,101376.63
2022-10-10T09:13:07.061Z,101360.69
2022-10-10T09:15:50.047Z,101371.97
2022-10-10T09:18:42.026Z,101371.13
2022-10-10T09:21:36.739Z,101367.25
2022-10-10T09:24:08.591Z,101358.41
2022-10-10T09:26:40.234Z,101368.16
2022-10-10T09:29:25.665Z,101367.47
2022-10-10T09:32:00.808Z,101368.78
2022-10-10T09:34:40.615Z,101357.38
2022-10-10T09:37:29.531Z,101356.16
2022-10-10T09:40:16.108Z,101355.03
2022-10-10T09:42:43.890Z,101352.00
2022-10-10T09:45:24.359Z,101349.09
2022-10-10T09:47:54.181Z,101344.09
2022-10-10T09:50:22.304Z,101341.75
2022-10-10T09:52:49.615Z,101342.19
2022-10-10T09:55:31.236Z,101340.72
2022-10-10T09:58:05.045Z,101342.22
2022-10-10T10:00:36.685Z,101339.16
2022-10-10T10:03:22.958Z,101341.75
2022-10-10T10:06:16.072Z,101334.66
2022-10-10T10:08:45.580Z,101338.94
2022-10-10T10:11:28.621Z,101337.47
2022-10-10T10:13:56.747Z,101333.56
2022-10-10T10:16:37.753Z,101325.38
2022-10-10T10:19:05.303Z,101316.78
2022-10-10T10:21:32.597Z,101319.63
2022-10-10T10:24:19.469Z,101311.94
2022-10-10T10:26:47.465Z,101310.38
2022-10-10T10:29:29.790Z,101314.13
2022-10-10T10:32:32.814Z,101316.47
2022-10-10T10:35:02.487Z,101316.47
2022-10-10T10:37:35.546Z,101316.88
2022-10-10T10:40:19.178Z,101297.78
2022-10-10T10:43:09.110Z,101305.09
2022-10-10T10:45:49.829Z,101310.09
2022-10-10T10:48:29.458Z,101312.03
2022-10-10T10:51:03.283Z,101304.28
2022-10-10T10:53:39.343Z,101305.69
2022-10-10T10:56:18.414Z,101281.25
2022-10-10T11:02:09.295Z,101278.47
2022-10-10T11:05:17.217Z,101288.13
2022-10-10T11:07:57.537Z,101284.56
2022-10-10T11:10:24.238Z,101281.19
2022-10-10T11:13:13.090Z,101264.94
2022-10-10T11:18:37.537Z,101276.25
2022-10-10T11:21:21.495Z,101265.03
2022-10-10T11:24:12.338Z,101261.81
2022-10-10T11:26:48.129Z,101263.66
2022-10-10T11:29:19.301Z,101269.41
2022-10-10T11:31:53.694Z,101265.47
2022-10-10T11:34:58.869Z,101264.44
2022-10-10T11:37:27.744Z,101262.66
2022-10-10T11:40:01.661Z,101263.22
2022-10-10T11:42:47.543Z,101263.78
2022-10-10T11:45:21.387Z,101250.63
2022-10-10T11:48:11.472Z,101245.16
2022-10-10T11:50:42.893Z,101251.00
2022-10-10T11:53:18.282Z,101253.09
2022-10-10T11:55:51.108Z,101236.88
2022-10-10T11:58:28.972Z,101246.03
2022-10-10T12:01:03.036Z,101237.16
2022-10-10T12:03:29.687Z,101244.72
2022-10-10T12:06:08.288Z,101243.19
2022-10-10T12:08:39.035Z,101242.72
2022-10-10T12:11:16.114Z,101232.03
2022-10-10T12:13:49.606Z,101231.22
2022-10-10T12:16:20.230Z,101227.59
2022-10-10T12:18:54.121Z,101231.78
2022-10-10T12:21:26.097Z,101239.91
2022-10-10T12:24:10.626Z,101231.50
2022-10-10T12:26:52.517Z,101233.25
2022-10-10T12:29:44.450Z,101218.59
2022-10-10T12:32:15.077Z,101224.34
2022-10-10T12:34:44.437Z,101226.38
2022-10-10T12:37:34.677Z,101232.88
2022-10-10T12:40:05.223Z,101227.75
2022-10-10T12:42:40.107Z,101229.03
2022-10-10T12:45:28.471Z,101228.69
2022-10-10T12:48:05.952Z,101229.53
2022-10-10T12:50:38.958Z,101217.03
2022-10-10T12:53:13.659Z,101216.91
2022-10-10T12:55:46.335Z,101220.22
2022-10-10T12:58:26.647Z,101216.91
2022-10-10T13:00:58.329Z,101218.59
2022-10-10T13:03:42.894Z,101213.09
2022-10-10T13:06:36.121Z,101211.81
2022-10-10T13:09:04.746Z,101207.81
2022-10-10T13:11:31.338Z,101196.13
2022-10-10T13:13:58.219Z,101193.63
2022-10-10T13:16:33.622Z,101195.28
2022-10-10T13:19:00.725Z,101187.97
2022-10-10T13:21:30.975Z,101188.53
2022-10-10T13:24:03.907Z,101185.50
2022-10-10T13:26:45.158Z,101190.19
2022-10-10T13:29:22.871Z,101194.44
2022-10-10T13:31:50.480Z,101185.56
2022-10-10T13:34:22.289Z,101193.41
2022-10-10T13:36:54.688Z,101198.38
2022-10-10T13:39:21.527Z,101191.50
2022-10-10T13:41:48.628Z,101192.06
2022-10-10T13:44:17.525Z,101192.84
2022-10-10T13:46:44.059Z,101187.78
2022-10-10T13:49:22.563Z,101181.19
2022-10-10T13:51:51.618Z,101182.31
2022-10-10T13:54:42.660Z,101182.22
2022-10-10T13:57:18.292Z,101180.06
2022-10-10T13:59:46.281Z,101179.88
2022-10-10T14:02:15.557Z,101181.38
2022-10-10T14:04:48.628Z,101169.44
2022-10-10T14:07:22.045Z,101173.72
2022-10-10T14:09:57.290Z,101177.25
2022-10-10T14:12:27.917Z,101167.97
2022-10-10T14:14:57.398Z,101164.41
2022-10-10T14:17:24.740Z,101171.78
2022-10-10T14:19:52.916Z,101178.75
2022-10-10T14:22:20.348Z,101159.09
2022-10-10T14:24:47.353Z,101165.09
2022-10-10T14:27:19.851Z,101171.53
2022-10-10T14:29:46.966Z,101167.25
2022-10-10T14:32:14.258Z,101159.72
2022-10-10T14:34:40.899Z,101157.25
2022-10-10T14:37:16.991Z,101153.56
2022-10-10T14:39:43.742Z,101159.66
2022-10-10T14:42:12.673Z,101147.53
2022-10-10T14:44:39.243Z,101142.22
2022-10-10T14:47:06.889Z,101144.59
2022-10-10T14:49:33.747Z,101141.38
2022-10-10T14:52:01.525Z,101145.13
2022-10-10T14:54:28.170Z,101142.56
2022-10-10T14:57:07.600Z,101140.53
2022-10-10T14:59:46.480Z,101141.91
2022-10-10T15:02:15.438Z,101139.75
2022-10-10T15:04:42.125Z,101135.81
2022-10-10T15:07:14.998Z,101142.22
2022-10-10T15:12:32.915Z,101146.34
2022-10-10T15:14:59.576Z,101135.13
2022-10-10T15:17:27.334Z,101138.69
2022-10-10T15:19:53.909Z,101143.84
2022-10-10T15:22:20.566Z,101143.22
2022-10-10T15:24:47.192Z,101143.28
2022-10-10T15:27:13.751Z,101146.25
2022-10-10T15:29:40.356Z,101158.31
2022-10-10T15:32:07.130Z,101158.06
2022-10-10T15:34:34.477Z,101162.84
2022-10-10T15:37:01.072Z,101159.09
2022-10-10T15:39:28.882Z,101167.97
2022-10-10T15:41:55.768Z,101167.91
2022-10-10T15:44:22.325Z,101169.66
2022-10-10T15:46:48.859Z,101169.63
2022-10-10T15:49:15.607Z,101168.59
2022-10-10T15:51:46.654Z,101170.31
2022-10-10T15:54:15.206Z,101168.75
2022-10-10T15:56:41.805Z,101161.50
2022-10-10T15:59:09.547Z,101168.78
2022-10-10T16:01:36.193Z,101170.94
2022-10-10T16:04:04.341Z,101163.28
2022-10-10T16:06:30.951Z,101166.38
2022-10-10T16:09:16.491Z,101169.59
2022-10-10T16:11:44.154Z,101166.44
2022-10-10T16:14:10.798Z,101159.88
2022-10-10T16:16:37.494Z,101168.44
2022-10-10T16:19:04.025Z,101166.13
2022-10-10T16:21:33.535Z,101162.19
2022-10-10T16:24:00.559Z,101157.19
2022-10-10T16:26:31.974Z,101162.16
2022-10-10T16:28:59.000Z,101164.44
2022-10-10T16:31:28.888Z,101163.09
2022-10-10T16:33:56.361Z,101166.22
2022-10-10T16:36:34.108Z,101168.53
2022-10-10T16:39:00.675Z,101169.78
2022-10-10T16:41:46.906Z,101170.13
2022-10-10T16:44:14.858Z,101166.47
2022-10-10T16:46:41.686Z,101174.28
2022-10-10T16:49:08.229Z,101166.75
2022-10-10T16:51:34.868Z,101174.94
2022-10-10T16:54:02.182Z,101167.19
2022-10-10T16:56:29.955Z,101173.94
2022-10-10T16:58:58.199Z,101175.09
2022-10-10T17:01:24.995Z,101181.56
2022-10-10T17:03:52.105Z,101188.03
2022-10-10T17:06:21.089Z,101184.72
2022-10-10T17:08:51.919Z,101183.13
2022-10-10T17:11:20.592Z,101175.31
2022-10-10T17:13:47.787Z,101183.66
2022-10-10T17:19:06.823Z,101183.28
2022-10-10T17:21:33.491Z,101191.50
2022-10-10T17:24:00.095Z,101192.47
2022-10-10T17:26:28.001Z,101183.88
2022-10-10T17:28:56.007Z,101188.72
2022-10-10T17:31:23.070Z,101180.84
2022-10-10T17:33:53.842Z,101171.47
2022-10-10T17:36:23.429Z,101179.53
2022-10-10T17:38:50.250Z,101182.34
2022-10-10T17:41:17.162Z,101186.91
2022-10-10T17:43:44.339Z,101191.59
2022-10-10T17:46:33.637Z,101196.25
2022-10-10T17:49:00.774Z,101191.09
2022-10-10T17:51:27.881Z,101200.28
2022-10-10T17:53:54.573Z,101196.84
2022-10-10T17:56:22.591Z,101196.19
2022-10-10T17:58:50.470Z,101201.66
2022-10-10T18:01:18.855Z,101198.22
2022-10-10T18:03:45.616Z,101206.47
2022-10-10T18:06:15.376Z,101211.03
2022-10-10T18:08:42.063Z,101205.94
2022-10-10T18:11:14.252Z,101216.69
2022-10-10T18:13:41.062Z,101204.56
2022-10-10T18:16:09.174Z,101221.59
2022-10-10T18:18:36.963Z,101212.88
2022-10-10T18:21:06.671Z,101222.56
2022-10-10T18:23:34.738Z,101227.25
2022-10-10T18:26:15.780Z,101227.47
2022-10-10T18:28:42.770Z,101232.19
2022-10-10T18:31:13.715Z,101232.38
2022-10-10T18:33:41.712Z,101224.44
2022-10-10T18:36:10.261Z,101230.94
2022-10-10T18:38:37.961Z,101238.16
2022-10-10T18:41:06.451Z,101244.59
2022-10-10T18:43:33.551Z,101242.03
2022-10-10T18:46:01.371Z,101240.41
2022-10-10T18:48:28.109Z,101237.91
2022-10-10T18:51:08.736Z,101242.53
2022-10-10T18:53:37.580Z,101237.41
2022-10-10T18:56:04.738Z,101239.28
2022-10-10T18:58:32.442Z,101264.31
2022-10-10T19:01:08.378Z,101267.09
2022-10-10T19:03:36.548Z,101270.75
2022-10-10T19:06:04.641Z,101269.13
2022-10-10T19:08:34.508Z,101272.63
2022-10-10T19:11:01.668Z,101278.06
2022-10-10T19:13:28.676Z,101270.22
2022-10-10T19:15:55.551Z,101271.13
2022-10-10T19:18:22.792Z,101276.34
2022-10-10T19:20:50.447Z,101279.88
2022-10-10T19:23:17.187Z,101266.59
2022-10-10T19:25:46.284Z,101262.88
2022-10-10T19:28:12.907Z,101273.53
2022-10-10T19:30:40.919Z,101277.88
2022-10-10T19:33:07.567Z,101275.16
2022-10-10T19:35:38.669Z,101280.47
2022-10-10T19:38:06.012Z,101282.28
2022-10-10T19:40:33.242Z,101287.50
2022-10-10T19:42:59.910Z,101283.91
2022-10-10T19:45:26.658Z,101290.09
2022-10-10T19:47:53.320Z,101283.88
2022-10-10T19:50:20.435Z,101282.97
2022-10-10T19:52:47.744Z,101295.31
2022-10-10T19:55:18.461Z,101292.72
2022-10-10T19:57:45.131Z,101300.63
2022-10-10T20:00:12.463Z,101297.03
2022-10-10T20:02:39.198Z,101305.97
2022-10-10T20:05:07.318Z,101308.56
2022-10-10T20:07:33.922Z,101313.00
2022-10-10T20:10:00.586Z,101315.59
2022-10-10T20:12:27.144Z,101321.75
2022-10-10T20:14:53.876Z,101324.41
2022-10-10T20:17:20.492Z,101326.13
2022-10-10T20:19:47.195Z,101330.56
2022-10-10T20:22:13.954Z,101329.56
2022-10-10T20:24:41.014Z,101331.44
2022-10-10T20:27:07.611Z,101340.19
2022-10-10T20:29:34.182Z,101343.72
2022-10-10T20:32:00.737Z,101345.38
2022-10-10T20:34:28.251Z,101356.06
2022-10-10T20:36:54.801Z,101364.16
2022-10-10T20:39:21.374Z,101351.44
2022-10-10T20:41:47.916Z,101375.25
2022-10-10T20:44:14.891Z,101384.97
2022-10-10T20:46:43.066Z,101382.94
2022-10-10T20:49:18.779Z,101379.31
2022-10-10T20:51:48.802Z,101388.47
2022-10-10T20:54:17.844Z,101386.56
2022-10-10T20:56:44.899Z,101395.94
2022-10-10T20:59:12.565Z,101389.28
2022-10-10T21:01:39.198Z,101404.00
2022-10-10T21:04:09.274Z,101402.84
2022-10-10T21:06:36.558Z,101408.00
2022-10-10T21:09:06.375Z,101414.09
2022-10-10T21:11:33.853Z,101415.81
2022-10-10T21:14:01.247Z,101411.19
2022-10-10T21:16:30.547Z,101420.06
2022-10-10T21:18:59.996Z,101421.53
2022-10-10T21:21:30.855Z,101424.63
2022-10-10T21:23:57.493Z,101438.75
2022-10-10T21:26:25.375Z,101442.34
2022-10-10T21:28:55.195Z,101442.03
2022-10-10T21:31:27.337Z,101445.44
2022-10-10T21:33:54.402Z,101446.34
2022-10-10T21:36:24.533Z,101447.06
2022-10-10T21:38:51.106Z,101457.66
2022-10-10T21:41:19.585Z,101451.16
2022-10-10T21:43:47.845Z,101457.09
2022-10-10T21:46:17.139Z,101461.97
2022-10-10T21:48:43.790Z,101473.41
2022-10-10T21:51:10.607Z,101477.97
2022-10-10T21:53:37.478Z,101472.69
2022-10-10T21:56:06.548Z,101478.06
2022-10-10T21:58:35.115Z,101482.50
2022-10-10T22:01:19.166Z,101494.38
2022-10-10T22:03:47.521Z,101496.81
2022-10-10T22:06:16.334Z,101494.72
2022-10-10T22:08:43.978Z,101506.00
2022-10-10T22:11:14.113Z,101505.84
2022-10-10T22:13:40.660Z,101496.38
2022-10-10T22:16:08.386Z,101502.97
2022-10-10T22:18:35.957Z,101501.56
2022-10-10T22:21:04.629Z,101507.38
2022-10-10T22:23:31.261Z,101516.25
2022-10-10T22:25:58.114Z,101521.94
2022-10-10T22:28:24.796Z,101517.91
2022-10-10T22:30:51.360Z,101511.34
2022-10-10T22:33:17.903Z,101515.66
2022-10-10T22:35:44.440Z,101518.19
2022-10-10T22:38:11.008Z,101508.56
2022-10-10T22:40:37.595Z,101520.44
2022-10-10T22:43:04.141Z,101517.31
2022-10-10T22:45:30.728Z,101508.44
2022-10-10T22:47:57.356Z,101521.97
2022-10-10T22:50:23.900Z,101531.84
2022-10-10T22:52:50.608Z,101522.56
2022-10-10T22:55:18.664Z,101530.44
2022-10-10T22:57:46.162Z,101533.91
2022-10-10T23:00:13.307Z,101539.00
2022-10-10T23:02:39.843Z,101543.44
2022-10-10T23:05:07.059Z,101551.66
2022-10-10T23:07:33.701Z,101539.94
2022-10-10T23:10:00.247Z,101566.81
2022-10-10T23:12:26.849Z,101565.19
2022-10-10T23:14:53.454Z,101566.81
2022-10-10T23:17:19.982Z,101566.81
2022-10-10T23:19:46.531Z,101567.88
2022-10-10T23:22:13.184Z,101581.94
2022-10-10T23:24:40.310Z,101578.66
2022-10-10T23:27:06.939Z,101589.38
2022-10-10T23:29:33.579Z,101602.19
2022-10-10T23:32:00.144Z,101605.75
2022-10-10T23:34:26.704Z,101608.16
2022-10-10T23:36:53.260Z,101607.78
2022-10-10T23:39:19.804Z,101611.59
2022-10-10T23:41:46.345Z,101625.97
2022-10-10T23:44:12.880Z,101633.78
2022-10-10T23:46:39.404Z,101638.06
2022-10-10T23:49:05.963Z,101638.06
2022-10-10T23:51:32.870Z,101646.94
2022-10-10T23:53:59.436Z,101646.06
2022-10-10T23:56:25.980Z,101656.34
2022-10-10T23:58:52.546Z,101661.78
